Time;durP1;ratioP1;P1;durP2;ratioP2;P2;SDS_P1;SDS_P2;PMS_P1;PMS_P2;Temp;Humidity;BMP_temperature;BMP_pressure;BME280_temperature;BME280_humidity;BME280_pressure;Samples;Min_cycle;Max_cycle;Signal;HPM_P1;HPM_P2
2022/12/11 00:01:31;;;;;;;30.15;19.13;;;4.30;99.90;;;;;;5073263;28;20625;-64
2022/12/11 00:03:57;;;;;;;31.98;18.63;;;4.50;99.90;;;;;;5073083;28;20206;-64
2022/12/11 00:06:23;;;;;;;29.83;18.65;;;4.50;99.90;;;;;;5073000;28;20178;-64
2022/12/11 00:08:53;;;;;;;28.70;17.75;;;4.20;99.90;;;;;;5072917;28;20177;-62
2022/12/11 00:11:20;;;;;;;29.95;18.73;;;4.20;99.90;;;;;;5073133;28;20179;-64
2022/12/11 00:13:46;;;;;;;32.33;18.73;;;4.30;99.90;;;;;;5072927;28;20220;-64
2022/12/11 00:16:11;;;;;;;32.53;18.65;;;4.50;99.90;;;;;;5073332;28;20205;-64
2022/12/11 00:18:37;;;;;;;30.63;18.03;;;4.30;99.90;;;;;;5072935;28;20536;-63
2022/12/11 00:21:05;;;;;;;33.03;18.23;;;4.40;99.90;;;;;;5072846;28;20192;-63
2022/12/11 00:23:31;;;;;;;30.13;17.77;;;4.50;99.90;;;;;;5072616;28;20206;-63
2022/12/11 00:25:57;;;;;;;30.58;18.38;;;4.20;99.90;;;;;;5073222;28;20272;-63
2022/12/11 00:28:22;;;;;;;29.88;16.98;;;4.20;99.90;;;;;;5072938;28;20184;-63
2022/12/11 00:30:48;;;;;;;26.90;17.48;;;4.40;99.90;;;;;;5073179;28;20255;-63
2022/12/11 00:33:14;;;;;;;30.38;17.35;;;4.40;99.90;;;;;;5072811;28;20205;-63
2022/12/11 00:35:43;;;;;;;27.55;17.02;;;4.30;99.90;;;;;;5072792;28;20233;-63
2022/12/11 00:38:17;;;;;;;30.10;18.00;;;4.20;99.90;;;;;;5072576;28;20523;-63
2022/12/11 00:40:43;;;;;;;29.38;16.83;;;4.10;99.90;;;;;;5073370;28;20174;-63
2022/12/11 00:43:09;;;;;;;31.33;17.43;;;4.10;99.90;;;;;;5076625;28;20241;-63
2022/12/11 00:45:37;;;;;;;30.40;17.15;;;4.30;99.90;;;;;;5076616;28;20188;-64
2022/12/11 00:48:02;;;;;;;28.48;16.63;;;4.20;99.90;;;;;;5076439;28;20635;-64
2022/12/11 00:50:28;;;;;;;29.88;17.15;;;4.20;99.90;;;;;;5076386;28;20188;-63
2022/12/11 00:52:54;;;;;;;27.40;16.25;;;4.20;99.90;;;;;;5076267;28;20185;-63
2022/12/11 00:55:19;;;;;;;29.85;17.02;;;4.00;99.90;;;;;;5076128;28;20681;-63
2022/12/11 00:57:46;;;;;;;30.13;17.05;;;4.00;99.90;;;;;;5076328;28;20658;-63
2022/12/11 01:00:12;;;;;;;29.15;16.83;;;3.90;99.90;;;;;;5076152;28;20185;-64
2022/12/11 01:02:38;;;;;;;27.10;15.73;;;3.80;99.90;;;;;;5076177;28;20210;-63
2022/12/11 01:05:04;;;;;;;31.20;17.98;;;3.60;99.90;;;;;;5076060;28;20174;-63
2022/12/11 01:07:30;;;;;;;33.07;17.90;;;3.90;99.90;;;;;;5076102;28;20174;-63
2022/12/11 01:12:39;;;;;;;29.70;17.50;;;3.80;99.90;;;;;;5076241;28;20208;-63
2022/12/11 01:15:06;;;;;;;29.98;17.08;;;4.10;99.90;;;;;;5075941;28;20635;-63
2022/12/11 01:17:31;;;;;;;31.50;17.43;;;4.20;99.90;;;;;;5075965;28;20173;-63
2022/12/11 01:19:57;;;;;;;28.38;17.33;;;3.90;99.90;;;;;;5075871;28;20600;-63
2022/12/11 01:22:22;;;;;;;28.27;17.42;;;4.10;99.90;;;;;;5074655;28;20655;-63
2022/12/11 01:24:48;;;;;;;30.88;17.90;;;4.20;99.90;;;;;;5075848;28;20585;-63
2022/12/11 01:27:14;;;;;;;32.38;17.42;;;4.10;99.90;;;;;;5075824;28;20188;-63
2022/12/11 01:29:40;;;;;;;27.27;17.15;;;4.00;99.90;;;;;;5074615;28;20174;-63
2022/12/11 01:32:05;;;;;;;28.75;16.73;;;3.80;99.90;;;;;;5075626;28;20193;-63
2022/12/11 01:34:32;;;;;;;31.20;17.73;;;3.80;99.90;;;;;;5075604;28;20178;-63
2022/12/11 01:36:58;;;;;;;30.92;18.27;;;3.80;99.90;;;;;;5075726;28;20210;-63
2022/12/11 01:39:23;;;;;;;31.10;17.58;;;4.00;99.90;;;;;;5075727;28;20194;-62
2022/12/11 01:41:49;;;;;;;31.80;18.38;;;4.20;99.90;;;;;;5075580;28;20617;-63
2022/12/11 01:44:14;;;;;;;29.27;17.40;;;4.10;99.90;;;;;;5075418;28;20625;-63
2022/12/11 01:46:41;;;;;;;30.80;18.08;;;4.20;99.90;;;;;;5075295;28;20265;-63
2022/12/11 01:49:11;;;;;;;32.70;18.52;;;4.30;99.90;;;;;;5075296;28;20176;-63
2022/12/11 01:51:57;;;;;;;35.28;19.30;;;4.40;99.90;;;;;;5075457;28;20174;-63
2022/12/11 01:54:26;;;;;;;35.63;19.70;;;4.40;99.90;;;;;;5074667;28;20182;-63
2022/12/11 01:56:56;;;;;;;37.50;20.02;;;4.50;99.90;;;;;;5075221;28;20178;-63
2022/12/11 01:59:25;;;;;;;33.38;18.63;;;4.40;99.90;;;;;;5074957;28;20177;-63
2022/12/11 02:01:58;;;;;;;33.85;18.35;;;4.30;99.90;;;;;;5075342;28;20171;-63
2022/12/11 02:04:24;;;;;;;32.50;19.38;;;4.40;99.90;;;;;;5073874;28;20214;-64
2022/12/11 02:06:51;;;;;;;34.67;19.25;;;4.50;99.90;;;;;;5075112;28;20174;-63
2022/12/11 02:09:22;;;;;;;33.65;18.30;;;4.40;99.90;;;;;;5075046;28;20167;-63
2022/12/11 02:12:17;;;;;;;33.15;18.90;;;4.50;99.90;;;;;;5074863;28;20224;-63
2022/12/11 02:14:51;;;;;;;30.75;18.50;;;4.60;99.90;;;;;;5075039;28;20642;-63
2022/12/11 02:17:37;;;;;;;36.40;19.73;;;4.70;99.90;;;;;;5074878;28;20220;-63
2022/12/11 02:20:43;;;;;;;31.60;17.85;;;4.60;99.90;;;;;;5074823;28;20174;-63
2022/12/11 02:23:12;;;;;;;36.13;19.58;;;4.80;99.90;;;;;;5074770;28;20293;-64
2022/12/11 02:25:47;;;;;;;35.15;18.48;;;4.90;99.90;;;;;;5074410;28;20193;-63
2022/12/11 02:28:26;;;;;;;33.95;19.05;;;5.00;99.90;;;;;;5074644;28;20169;-63
2022/12/11 02:31:09;;;;;;;34.15;19.25;;;4.80;99.90;;;;;;5074675;28;20174;-63
2022/12/11 02:34:05;;;;;;;33.80;18.85;;;4.90;99.90;;;;;;5074398;28;20181;-63
2022/12/11 02:36:39;;;;;;;33.63;19.27;;;5.00;99.90;;;;;;5074427;28;20170;-63
2022/12/11 02:39:07;;;;;;;37.20;19.55;;;5.00;99.90;;;;;;5074321;28;20175;-63
2022/12/11 02:41:34;;;;;;;33.47;18.70;;;5.00;99.90;;;;;;5074507;28;20253;-63
2022/12/11 02:44:02;;;;;;;36.90;19.10;;;5.10;99.90;;;;;;5074121;28;20218;-63
2022/12/11 02:46:30;;;;;;;33.80;18.63;;;5.10;99.90;;;;;;5073663;28;20197;-63
2022/12/11 02:48:56;;;;;;;35.03;18.98;;;5.10;99.90;;;;;;5074299;28;20170;-63
2022/12/11 02:51:30;;;;;;;32.42;18.73;;;5.10;99.90;;;;;;5073991;28;20675;-63
2022/12/11 02:53:58;;;;;;;36.33;19.80;;;4.90;99.90;;;;;;5074278;28;20700;-63
2022/12/11 02:56:32;;;;;;;33.78;18.63;;;4.90;99.90;;;;;;5074098;28;20265;-63
2022/12/11 02:59:04;;;;;;;35.80;17.85;;;5.00;99.90;;;;;;5073969;28;20161;-63
2022/12/11 03:01:30;;;;;;;30.38;18.55;;;5.10;99.90;;;;;;5074065;28;20307;-64
2022/12/11 03:03:57;;;;;;;37.15;20.00;;;4.90;99.90;;;;;;5073541;28;20308;-64
2022/12/11 03:06:30;;;;;;;33.13;18.67;;;4.80;99.90;;;;;;5073994;28;20177;-63
2022/12/11 03:08:56;;;;;;;34.47;18.50;;;4.70;99.90;;;;;;5073948;28;20167;-63
2022/12/11 03:11:21;;;;;;;32.70;17.60;;;4.90;99.90;;;;;;5073805;28;20212;-63
2022/12/11 03:13:47;;;;;;;32.38;18.08;;;5.00;99.90;;;;;;5073705;28;20181;-64
2022/12/11 03:16:41;;;;;;;33.75;18.67;;;5.10;99.90;;;;;;5073643;28;20669;-63
2022/12/11 03:19:33;;;;;;;33.63;19.05;;;5.00;99.90;;;;;;5073640;28;20627;-64
2022/12/11 03:22:20;;;;;;;32.72;18.38;;;5.10;99.90;;;;;;5073764;28;20261;-64
2022/12/11 03:24:49;;;;;;;37.08;18.45;;;5.00;99.90;;;;;;5073624;28;20209;-63
2022/12/11 03:27:56;;;;;;;35.38;18.40;;;5.10;99.90;;;;;;5073442;28;20631;-63
2022/12/11 03:30:24;;;;;;;37.40;19.05;;;5.30;99.90;;;;;;5052971;28;20551;-63
2022/12/11 03:32:55;;;;;;;32.85;18.73;;;5.20;99.90;;;;;;5073445;28;20178;-63
2022/12/11 03:35:37;;;;;;;33.47;17.60;;;5.10;99.90;;;;;;5073402;28;20200;-63
2022/12/11 03:38:08;;;;;;;32.92;18.13;;;5.10;99.90;;;;;;5073518;28;20170;-63
2022/12/11 03:40:35;;;;;;;30.33;16.80;;;5.00;99.90;;;;;;5073408;28;20206;-63
2022/12/11 03:43:03;;;;;;;30.98;18.10;;;5.00;99.90;;;;;;5073248;28;20297;-62
2022/12/11 03:45:31;;;;;;;33.60;17.58;;;4.80;99.90;;;;;;5073257;28;20205;-63
2022/12/11 03:47:58;;;;;;;36.90;17.13;;;4.90;99.90;;;;;;5073294;28;20676;-63
2022/12/11 03:50:27;;;;;;;33.53;18.15;;;4.90;99.90;;;;;;5073343;28;20186;-63
2022/12/11 03:52:54;;;;;;;30.70;17.53;;;4.80;99.90;;;;;;5073322;28;20185;-63
2022/12/11 03:55:21;;;;;;;32.80;18.17;;;4.90;99.90;;;;;;5073083;28;20184;-63
2022/12/11 03:57:48;;;;;;;35.72;17.90;;;4.80;99.90;;;;;;5073400;28;20171;-63
2022/12/11 04:00:16;;;;;;;34.35;18.02;;;4.90;99.90;;;;;;5072914;28;20189;-63
2022/12/11 04:02:43;;;;;;;34.35;18.60;;;4.80;99.90;;;;;;5073124;28;20205;-63
2022/12/11 04:05:10;;;;;;;29.77;17.52;;;4.90;99.90;;;;;;5073131;28;20225;-63
2022/12/11 04:07:36;;;;;;;31.40;17.92;;;4.70;99.90;;;;;;5073099;28;20177;-63
2022/12/11 04:10:04;;;;;;;36.10;16.42;;;4.80;99.90;;;;;;5073021;28;20166;-63
2022/12/11 04:12:29;;;;;;;35.70;17.63;;;4.90;99.90;;;;;;5072866;28;20173;-63
2022/12/11 04:15:01;;;;;;;32.17;17.58;;;4.90;99.90;;;;;;5072870;28;20231;-63
2022/12/11 04:25:46;;;;;;;33.28;18.67;;;5.30;99.90;;;;;;5077451;28;20633;-63
2022/12/11 04:28:11;;;;;;;34.95;18.73;;;5.30;99.90;;;;;;5076897;28;20178;-63
2022/12/11 04:30:38;;;;;;;38.63;19.30;;;5.40;99.90;;;;;;5076513;28;20197;-63
2022/12/11 04:33:04;;;;;;;33.97;18.00;;;5.30;99.90;;;;;;5076834;28;20239;-63
2022/12/11 04:35:30;;;;;;;31.35;19.13;;;5.30;99.90;;;;;;5076671;28;20177;-63
2022/12/11 04:37:59;;;;;;;36.35;19.52;;;5.10;99.90;;;;;;5076633;28;20178;-63
2022/12/11 04:40:25;;;;;;;33.78;18.80;;;5.00;99.90;;;;;;5076728;28;20174;-62
2022/12/11 04:42:51;;;;;;;37.17;19.73;;;5.00;99.90;;;;;;5076498;28;20217;-63
2022/12/11 04:45:17;;;;;;;34.72;20.02;;;4.70;99.90;;;;;;5076591;28;20222;-63
2022/12/11 04:47:42;;;;;;;32.05;18.38;;;4.50;99.90;;;;;;5076464;28;20173;-63
2022/12/11 04:50:10;;;;;;;31.20;17.83;;;4.70;99.90;;;;;;5076308;28;20189;-63
2022/12/11 04:52:35;;;;;;;35.05;19.08;;;4.90;99.90;;;;;;5076337;28;20627;-63
2022/12/11 04:55:04;;;;;;;39.30;20.02;;;5.10;99.90;;;;;;5076215;28;20189;-62
2022/12/11 04:57:29;;;;;;;34.38;17.92;;;5.10;99.90;;;;;;5076647;28;20189;-63
2022/12/11 04:59:55;;;;;;;37.95;19.92;;;4.90;99.90;;;;;;5076309;28;20535;-63
2022/12/11 05:02:20;;;;;;;36.13;20.05;;;4.90;99.90;;;;;;5076242;28;20662;-63
2022/12/11 05:04:46;;;;;;;34.10;19.60;;;4.80;99.90;;;;;;5076047;28;20221;-63
2022/12/11 05:07:12;;;;;;;40.08;20.30;;;5.00;99.90;;;;;;5076326;28;20174;-63
2022/12/11 05:09:37;;;;;;;34.13;19.98;;;5.00;99.90;;;;;;5075874;28;20186;-63
2022/12/11 05:12:03;;;;;;;35.75;19.35;;;5.10;99.90;;;;;;5076140;28;20634;-63
2022/12/11 05:14:30;;;;;;;33.35;19.52;;;5.10;99.90;;;;;;5076096;28;20182;-63
2022/12/11 05:16:57;;;;;;;36.40;20.30;;;5.10;99.90;;;;;;5075982;28;20174;-63
2022/12/11 05:19:23;;;;;;;34.88;19.75;;;5.10;99.90;;;;;;5075836;28;20171;-63
2022/12/11 05:21:49;;;;;;;35.90;21.17;;;5.00;99.90;;;;;;5076035;28;20174;-63
2022/12/11 05:24:15;;;;;;;35.85;20.13;;;5.10;99.90;;;;;;5075946;28;20253;-63
2022/12/11 05:26:40;;;;;;;38.05;20.70;;;5.00;99.90;;;;;;5075793;28;20193;-63
2022/12/11 05:29:06;;;;;;;35.55;19.95;;;4.90;99.90;;;;;;5074124;28;20204;-63
2022/12/11 05:31:35;;;;;;;35.83;19.88;;;4.80;99.90;;;;;;5076020;28;20243;-63
2022/12/11 05:34:00;;;;;;;35.10;20.25;;;4.90;99.90;;;;;;5075540;28;20534;-61
2022/12/11 05:36:32;;;;;;;34.42;20.58;;;5.00;99.90;;;;;;5076050;28;20265;-63
2022/12/11 05:38:59;;;;;;;37.17;19.17;;;5.00;99.90;;;;;;5075768;28;20244;-63
2022/12/11 05:41:27;;;;;;;32.95;19.75;;;5.10;99.90;;;;;;5075498;28;20165;-62
2022/12/11 05:43:52;;;;;;;35.95;20.02;;;5.00;99.90;;;;;;5075383;28;20212;-63
2022/12/11 05:46:24;;;;;;;33.43;18.97;;;4.90;99.90;;;;;;5075630;28;20182;-63
2022/12/11 05:48:52;;;;;;;38.25;20.70;;;5.00;99.90;;;;;;5075781;28;20631;-62
2022/12/11 05:51:18;;;;;;;34.60;20.05;;;4.90;99.90;;;;;;5075516;28;20189;-63
2022/12/11 05:53:47;;;;;;;38.20;20.40;;;4.90;99.90;;;;;;5074141;28;20213;-63
2022/12/11 05:56:25;;;;;;;33.53;20.63;;;5.00;99.90;;;;;;5075198;28;20692;-62
2022/12/11 05:58:51;;;;;;;37.03;20.70;;;5.00;99.90;;;;;;5075099;28;20178;-63
2022/12/11 06:01:38;;;;;;;37.83;20.55;;;4.90;99.90;;;;;;5075386;28;20190;-63
2022/12/11 06:04:05;;;;;;;35.38;20.73;;;5.00;99.90;;;;;;5075234;28;20209;-62
2022/12/11 06:06:31;;;;;;;35.60;21.50;;;4.90;99.90;;;;;;5075157;28;20255;-63
2022/12/11 06:08:57;;;;;;;38.10;21.38;;;4.90;99.90;;;;;;5075052;28;20269;-63
2022/12/11 06:11:25;;;;;;;38.35;21.50;;;4.90;99.90;;;;;;5074898;28;20170;-63
2022/12/11 06:13:52;;;;;;;38.30;21.37;;;4.90;99.90;;;;;;5075434;28;20183;-62
2022/12/11 06:16:18;;;;;;;43.63;22.33;;;5.00;99.90;;;;;;5074980;28;20186;-63
2022/12/11 06:18:44;;;;;;;38.05;22.10;;;4.90;99.90;;;;;;5074903;28;20206;-63
2022/12/11 06:21:21;;;;;;;39.05;21.27;;;4.80;99.90;;;;;;5074927;28;20721;-63
2022/12/11 06:23:48;;;;;;;40.43;21.90;;;4.70;99.90;;;;;;5074562;28;20197;-63
2022/12/11 06:26:16;;;;;;;41.57;22.90;;;4.50;99.90;;;;;;5074579;28;20191;-62
2022/12/11 06:28:41;;;;;;;39.20;21.97;;;4.70;99.90;;;;;;5074792;28;20223;-63
2022/12/11 06:31:07;;;;;;;44.90;23.13;;;4.70;99.90;;;;;;5074542;28;20178;-63
2022/12/11 06:33:36;;;;;;;40.90;21.40;;;4.70;99.90;;;;;;5074674;28;20639;-63
2022/12/11 06:36:04;;;;;;;40.87;22.43;;;4.80;99.90;;;;;;5074423;28;20193;-63
2022/12/11 06:38:30;;;;;;;45.05;23.65;;;4.90;99.90;;;;;;5073997;28;20173;-63
2022/12/11 06:40:57;;;;;;;42.95;24.15;;;4.90;99.90;;;;;;5074533;28;20173;-63
2022/12/11 06:43:23;;;;;;;44.03;24.63;;;4.90;99.90;;;;;;5074230;28;20216;-63
2022/12/11 06:45:49;;;;;;;47.27;23.47;;;4.90;99.90;;;;;;5074268;28;20190;-63
2022/12/11 06:48:15;;;;;;;43.38;24.25;;;4.70;99.90;;;;;;5073923;28;20188;-62
2022/12/11 06:50:40;;;;;;;47.10;25.40;;;4.80;99.90;;;;;;5073595;28;20174;-62
2022/12/11 06:53:06;;;;;;;45.63;24.20;;;4.50;99.90;;;;;;5071157;28;20189;-62
2022/12/11 06:55:35;;;;;;;44.85;24.40;;;4.60;99.90;;;;;;5071701;28;20201;-62
2022/12/11 06:58:00;;;;;;;42.95;24.25;;;4.50;99.90;;;;;;5072010;28;20185;-63
2022/12/11 07:00:26;;;;;;;43.88;24.42;;;4.30;99.90;;;;;;5072440;28;20169;-63
2022/12/11 07:02:52;;;;;;;46.53;25.70;;;4.40;99.90;;;;;;5072483;28;20212;-63
2022/12/11 07:05:18;;;;;;;45.73;25.73;;;4.40;99.90;;;;;;5073772;28;20182;-58
2022/12/11 07:07:44;;;;;;;47.30;24.53;;;4.50;99.90;;;;;;5071910;28;20520;-65
2022/12/11 07:10:10;;;;;;;45.17;25.40;;;4.60;99.90;;;;;;5072498;28;20581;-63
2022/12/11 07:12:36;;;;;;;47.20;24.58;;;4.70;99.90;;;;;;5073782;28;20174;-63
2022/12/11 07:15:03;;;;;;;52.33;24.92;;;4.80;99.90;;;;;;5073709;28;20186;-63
2022/12/11 07:17:29;;;;;;;47.72;25.48;;;4.40;99.90;;;;;;5073435;28;20175;-63
2022/12/11 07:19:55;;;;;;;42.13;23.87;;;4.40;99.90;;;;;;5073414;28;20177;-63
2022/12/11 07:22:21;;;;;;;44.37;23.47;;;4.30;99.90;;;;;;5055089;28;20762;-63
2022/12/11 07:24:49;;;;;;;44.13;24.55;;;4.40;99.90;;;;;;5072764;28;20308;-62
2022/12/11 07:27:15;;;;;;;46.97;25.30;;;4.40;99.90;;;;;;5052796;28;20177;-64
2022/12/11 07:29:41;;;;;;;44.40;24.07;;;4.50;99.90;;;;;;5069382;28;20203;-61
2022/12/11 07:32:06;;;;;;;43.53;23.88;;;4.60;99.90;;;;;;5070089;28;20661;-63
2022/12/11 07:34:32;;;;;;;47.42;25.58;;;4.80;99.90;;;;;;5070158;28;20517;-63
2022/12/11 07:36:58;;;;;;;45.17;24.90;;;4.80;99.90;;;;;;5071057;28;20189;-65
2022/12/11 07:39:23;;;;;;;45.53;25.45;;;4.70;99.90;;;;;;5073113;28;20576;-63
2022/12/11 07:41:49;;;;;;;51.13;25.58;;;4.60;99.90;;;;;;5073163;28;20178;-65
2022/12/11 07:44:15;;;;;;;44.40;25.58;;;4.80;99.90;;;;;;5073159;28;20709;-63
2022/12/11 07:46:40;;;;;;;43.38;23.80;;;4.80;99.90;;;;;;5071752;28;20197;-64
2022/12/11 07:49:06;;;;;;;47.78;25.25;;;4.80;99.90;;;;;;5073346;28;20178;-61
2022/12/11 07:51:34;;;;;;;44.80;23.48;;;4.80;99.90;;;;;;5071006;28;20196;-63
2022/12/11 07:54:09;;;;;;;41.60;23.10;;;4.80;99.90;;;;;;5072867;28;20190;-63
2022/12/11 07:56:35;;;;;;;43.40;23.83;;;4.80;99.90;;;;;;5073178;28;20181;-63
2022/12/11 07:59:03;;;;;;;45.33;24.40;;;4.90;99.90;;;;;;5073076;28;20622;-63
2022/12/11 08:01:30;;;;;;;43.80;24.52;;;4.70;99.90;;;;;;5073052;28;20178;-63
2022/12/11 08:03:56;;;;;;;45.47;24.20;;;4.60;99.90;;;;;;5072845;28;20236;-63
2022/12/11 08:06:29;;;;;;;44.78;24.48;;;4.60;99.90;;;;;;5073080;28;20617;-63
2022/12/11 08:08:56;;;;;;;38.77;22.80;;;4.70;99.90;;;;;;5072351;28;20235;-63
2022/12/11 08:11:22;;;;;;;42.47;24.07;;;4.70;99.90;;;;;;5072924;28;20213;-63
2022/12/11 08:13:48;;;;;;;43.97;24.55;;;4.80;99.90;;;;;;5072950;28;20204;-62
2022/12/11 08:16:15;;;;;;;43.03;23.98;;;4.80;99.90;;;;;;5072700;28;20178;-62
2022/12/11 08:18:42;;;;;;;45.50;24.17;;;4.80;99.90;;;;;;5072711;28;20186;-63
2022/12/11 08:21:16;;;;;;;41.45;23.10;;;4.80;99.90;;;;;;5073007;28;20599;-63
2022/12/11 08:23:42;;;;;;;42.22;23.85;;;4.60;99.90;;;;;;5072869;28;20355;-63
2022/12/11 08:26:12;;;;;;;41.65;23.50;;;4.50;99.90;;;;;;5072633;28;20198;-61
2022/12/11 08:28:38;;;;;;;36.65;20.80;;;4.60;99.90;;;;;;5072805;28;20174;-62
2022/12/11 08:31:06;;;;;;;45.30;23.05;;;4.50;99.90;;;;;;5072525;28;20647;-62
2022/12/11 08:33:33;;;;;;;38.33;21.67;;;4.70;99.90;;;;;;5072201;28;20198;-62
2022/12/11 08:36:03;;;;;;;37.60;21.40;;;4.80;99.90;;;;;;5072379;28;20690;-63
2022/12/11 08:38:29;;;;;;;38.35;22.30;;;4.70;99.90;;;;;;5072598;28;20539;-62
2022/12/11 08:40:54;;;;;;;41.35;22.75;;;4.70;99.90;;;;;;5072152;28;20186;-63
2022/12/11 08:43:20;;;;;;;38.90;23.17;;;4.60;99.90;;;;;;5072346;28;20206;-63
2022/12/11 08:45:46;;;;;;;38.00;21.90;;;4.60;99.90;;;;;;5072322;28;20189;-63
2022/12/11 08:48:11;;;;;;;39.03;21.05;;;4.60;99.90;;;;;;5072711;28;20178;-63
2022/12/11 08:50:37;;;;;;;34.05;20.45;;;4.50;99.90;;;;;;5071371;28;20225;-63
2022/12/11 08:53:03;;;;;;;34.85;20.58;;;4.50;99.90;;;;;;5072084;28;20178;-63
2022/12/11 08:55:28;;;;;;;33.73;19.67;;;4.50;99.90;;;;;;5072558;28;20182;-63
2022/12/11 08:57:54;;;;;;;36.88;20.65;;;4.30;99.90;;;;;;5071612;28;20178;-63
2022/12/11 09:00:20;;;;;;;35.75;19.58;;;4.40;99.90;;;;;;5072493;28;20217;-62
2022/12/11 09:02:47;;;;;;;33.00;18.77;;;4.20;99.90;;;;;;5074565;28;20182;-63
2022/12/11 09:05:12;;;;;;;34.17;19.17;;;4.50;99.90;;;;;;5076059;28;20599;-63
2022/12/11 09:07:38;;;;;;;30.33;18.57;;;4.50;99.90;;;;;;5063368;28;20269;-63
2022/12/11 09:10:06;;;;;;;34.97;22.30;;;4.60;99.90;;;;;;5056027;28;20182;-63
2022/12/11 09:12:33;;;;;;;31.73;18.85;;;4.50;99.90;;;;;;5055954;28;20174;-63
2022/12/11 09:14:59;;;;;;;32.73;18.77;;;4.60;99.90;;;;;;5055885;28;20181;-63
2022/12/11 09:17:25;;;;;;;30.30;19.00;;;4.60;99.90;;;;;;5056191;28;20179;-63
2022/12/11 09:19:50;;;;;;;31.55;18.70;;;4.60;99.90;;;;;;5054886;28;20179;-63
2022/12/11 09:22:16;;;;;;;31.65;18.73;;;4.70;99.90;;;;;;5056035;28;20631;-63
2022/12/11 09:24:42;;;;;;;25.70;17.20;;;4.70;99.90;;;;;;5055933;28;20230;-63
2022/12/11 09:27:07;;;;;;;32.05;18.25;;;4.80;99.90;;;;;;5055798;28;20178;-63
2022/12/11 09:29:33;;;;;;;35.03;20.50;;;4.90;99.90;;;;;;5055627;28;20651;-63
2022/12/11 09:31:59;;;;;;;33.60;18.87;;;4.90;99.90;;;;;;5055877;28;20240;-63
2022/12/11 09:34:25;;;;;;;32.63;18.67;;;5.00;99.90;;;;;;5056145;28;20182;-63
2022/12/11 09:36:50;;;;;;;32.30;18.17;;;4.80;99.90;;;;;;5060115;28;20210;-63
2022/12/11 09:39:17;;;;;;;30.38;18.15;;;4.80;99.90;;;;;;5075613;28;20179;-63
2022/12/11 09:41:58;;;;;;;32.70;19.02;;;4.70;99.90;;;;;;5075475;28;20178;-63
2022/12/11 09:44:42;;;;;;;29.48;17.58;;;4.80;99.90;;;;;;5075634;28;20237;-63
2022/12/11 09:47:20;;;;;;;34.85;19.92;;;4.90;99.90;;;;;;5075576;28;20247;-62
2022/12/11 09:49:50;;;;;;;31.20;18.02;;;4.90;99.90;;;;;;5075356;28;20175;-63
2022/12/11 09:52:36;;;;;;;30.40;18.67;;;4.80;99.90;;;;;;5075350;28;20174;-63
2022/12/11 09:55:13;;;;;;;30.90;18.20;;;4.60;99.90;;;;;;5075485;28;20194;-62
2022/12/11 09:57:56;;;;;;;30.40;18.02;;;4.50;99.90;;;;;;5075452;28;20197;-62
2022/12/11 10:00:31;;;;;;;32.65;18.67;;;4.40;99.90;;;;;;5075163;28;20240;-62
2022/12/11 10:03:18;;;;;;;28.08;17.80;;;4.50;99.90;;;;;;5074876;28;20280;-62
2022/12/11 10:05:44;;;;;;;32.78;18.38;;;4.60;99.90;;;;;;5075234;28;20178;-61
2022/12/11 10:08:25;;;;;;;32.45;18.70;;;4.60;99.90;;;;;;5075104;28;20173;-62
2022/12/11 10:11:16;;;;;;;28.08;17.55;;;4.40;99.90;;;;;;5075012;28;20180;-63
2022/12/11 10:13:53;;;;;;;32.20;18.15;;;4.50;99.90;;;;;;5073604;28;20279;-63
2022/12/11 10:16:42;;;;;;;29.85;17.42;;;4.60;99.90;;;;;;5074803;28;20184;-63
2022/12/11 10:19:30;;;;;;;28.73;16.85;;;4.60;99.90;;;;;;5072026;28;20264;-61
2022/12/11 10:21:57;;;;;;;31.75;17.58;;;4.70;99.90;;;;;;5073490;28;20217;-62
2022/12/11 10:25:03;;;;;;;31.17;17.33;;;4.70;99.90;;;;;;5074677;28;20224;-62
2022/12/11 10:27:34;;;;;;;31.75;17.85;;;4.70;99.90;;;;;;5032066;28;20648;-62
2022/12/11 10:30:17;;;;;;;30.45;17.80;;;4.70;99.90;;;;;;5032508;28;20176;-63
2022/12/11 10:32:53;;;;;;;25.40;15.90;;;4.80;99.90;;;;;;5059045;28;20521;-63
2022/12/11 10:35:38;;;;;;;28.38;17.00;;;4.60;99.90;;;;;;5074341;28;20178;-60
2022/12/11 10:38:12;;;;;;;34.25;18.25;;;4.80;99.90;;;;;;5074456;28;20619;-62
2022/12/11 10:40:43;;;;;;;30.02;17.45;;;4.70;99.90;;;;;;5074166;28;20189;-62
2022/12/11 10:43:09;;;;;;;30.60;17.60;;;4.50;99.90;;;;;;5074533;28;20571;-61
2022/12/11 10:45:36;;;;;;;30.52;16.75;;;4.80;99.90;;;;;;5074150;28;20182;-62
2022/12/11 10:48:09;;;;;;;30.20;17.85;;;4.70;99.90;;;;;;5074266;28;20174;-61
2022/12/11 10:50:35;;;;;;;57.03;33.00;;;4.70;99.90;;;;;;5073975;28;20226;-62
2022/12/11 10:53:01;;;;;;;39.15;22.70;;;4.90;99.90;;;;;;5074021;28;20185;-62
2022/12/11 10:55:42;;;;;;;33.10;18.92;;;4.80;99.90;;;;;;5074319;28;20316;-62
2022/12/11 10:58:24;;;;;;;30.52;17.48;;;4.70;99.90;;;;;;5074131;28;20170;-62
2022/12/11 11:01:02;;;;;;;32.92;18.02;;;4.70;99.90;;;;;;5074070;28;20167;-62
2022/12/11 11:03:28;;;;;;;32.53;18.70;;;4.70;99.90;;;;;;5073809;28;20220;-62
2022/12/11 11:06:16;;;;;;;33.35;17.55;;;4.60;99.90;;;;;;5073969;28;20566;-62
2022/12/11 11:08:47;;;;;;;31.25;17.60;;;4.90;99.90;;;;;;5073945;28;20177;-62
2022/12/11 11:11:21;;;;;;;34.08;18.08;;;5.00;99.90;;;;;;5073785;28;20183;-61
2022/12/11 11:13:47;;;;;;;33.17;18.77;;;4.90;99.90;;;;;;5073655;28;20268;-62
2022/12/11 11:16:16;;;;;;;30.52;16.80;;;4.90;99.90;;;;;;5073741;28;20261;-62
2022/12/11 11:18:52;;;;;;;33.55;17.80;;;5.10;99.90;;;;;;5073708;28;20658;-62
2022/12/11 11:21:24;;;;;;;36.22;18.10;;;5.10;99.90;;;;;;5073626;28;20200;-62
2022/12/11 11:23:51;;;;;;;31.30;16.95;;;4.80;99.90;;;;;;5073521;28;20217;-62
2022/12/11 11:26:18;;;;;;;32.00;18.52;;;4.90;99.90;;;;;;5072446;28;20189;-62
2022/12/11 11:28:51;;;;;;;32.30;18.33;;;5.10;99.90;;;;;;5073435;28;20658;-62
2022/12/11 11:31:18;;;;;;;30.70;16.77;;;5.10;99.90;;;;;;5073710;28;20171;-62
2022/12/11 11:33:51;;;;;;;31.52;16.85;;;5.20;99.90;;;;;;5073321;28;20673;-62
2022/12/11 11:36:22;;;;;;;32.15;17.67;;;5.30;99.90;;;;;;5073428;28;20174;-62
2022/12/11 11:38:51;;;;;;;29.33;16.08;;;5.20;99.90;;;;;;5073285;28;20204;-62
2022/12/11 11:41:22;;;;;;;30.55;17.05;;;5.30;99.90;;;;;;5073452;28;20257;-61
2022/12/11 11:43:58;;;;;;;29.75;17.08;;;5.40;99.90;;;;;;5073250;28;20303;-61
2022/12/11 11:46:25;;;;;;;26.48;14.93;;;5.20;99.90;;;;;;5073309;28;20638;-61
2022/12/11 11:49:03;;;;;;;27.10;15.68;;;5.30;99.90;;;;;;5073212;28;20170;-61
2022/12/11 11:51:36;;;;;;;22.85;14.45;;;5.20;99.90;;;;;;5073217;28;20177;-62
2022/12/11 11:54:31;;;;;;;25.67;14.80;;;5.40;99.90;;;;;;5073298;28;20182;-62
2022/12/11 11:56:57;;;;;;;26.42;15.98;;;5.60;99.90;;;;;;5071720;28;20178;-61
2022/12/11 11:59:33;;;;;;;28.15;15.40;;;5.50;99.90;;;;;;5073102;28;20174;-61
2022/12/11 12:01:59;;;;;;;24.17;14.85;;;5.50;99.90;;;;;;5073351;28;20176;-61
2022/12/11 12:04:30;;;;;;;26.42;14.77;;;5.70;99.90;;;;;;5073114;28;20251;-61
2022/12/11 12:07:16;;;;;;;27.17;15.50;;;5.80;99.90;;;;;;5073201;28;20167;-61
2022/12/11 12:09:54;;;;;;;25.30;15.00;;;5.70;99.90;;;;;;5073103;28;20180;-62
2022/12/11 12:12:32;;;;;;;25.52;14.70;;;5.50;99.90;;;;;;5073265;28;20187;-61
2022/12/11 12:15:20;;;;;;;25.58;14.70;;;5.80;99.90;;;;;;5073196;28;20234;-61
2022/12/11 12:17:52;;;;;;;26.63;15.95;;;6.00;99.90;;;;;;5072996;28;20177;-62
2022/12/11 12:20:50;;;;;;;28.27;16.48;;;5.80;99.90;;;;;;5072893;28;20608;-62
2022/12/11 12:23:49;;;;;;;28.35;15.43;;;6.00;99.90;;;;;;5072978;28;20224;-62
2022/12/11 12:26:40;;;;;;;27.83;15.55;;;6.00;99.90;;;;;;5072666;28;20202;-62
2022/12/11 12:29:24;;;;;;;27.50;15.05;;;5.90;99.90;;;;;;5073085;28;20173;-62
2022/12/11 12:32:08;;;;;;;21.83;14.00;;;6.00;99.90;;;;;;5072960;28;20635;-62
2022/12/11 12:34:58;;;;;;;54.40;26.83;;;6.00;99.90;;;;;;5072753;28;20186;-61
2022/12/11 12:38:00;;;;;;;57.38;28.52;;;6.10;99.90;;;;;;5074498;28;20177;-62
2022/12/11 12:40:54;;;;;;;33.53;18.33;;;5.80;99.90;;;;;;5076749;28;20211;-64
2022/12/11 12:43:38;;;;;;;26.90;14.55;;;6.00;99.90;;;;;;5058262;28;20799;-62
2022/12/11 12:46:45;;;;;;;43.88;23.52;;;5.90;99.90;;;;;;5076742;28;20634;-62
2022/12/11 12:49:16;;;;;;;55.55;29.95;;;6.10;99.90;;;;;;5070752;28;20184;-62
2022/12/11 12:51:43;;;;;;;47.45;24.80;;;6.20;99.90;;;;;;5076454;28;20173;-62
2022/12/11 12:54:14;;;;;;;27.75;16.58;;;6.10;99.90;;;;;;5076375;28;20182;-62
2022/12/11 12:56:42;;;;;;;25.50;14.93;;;6.10;99.90;;;;;;5076545;28;20170;-62
2022/12/11 12:59:37;;;;;;;22.30;13.40;;;5.90;99.90;;;;;;5076402;28;20178;-62
2022/12/11 13:02:03;;;;;;;34.72;23.27;;;5.80;99.90;;;;;;5067166;28;20198;-62
2022/12/11 13:04:42;;;;;;;29.05;18.05;;;5.90;99.90;;;;;;5076317;28;20233;-62